JBU1281 KJFK-KBOS
Flight info
| Callsign | JBU1281 |
|---|---|
| Flight time | 0h 49m |
| Altitude | 21000 |
| Route | MERIT ROBUC3 |
| Aircraft | A320/M-SDE3FGHIRWY/LB1 |
Departure
| Time | 2026-05-04 17:23 |
|---|---|
| Airport | John F. Kennedy International Airport (KJFK) |
Arrival
| Time | 2026-05-04 18:12 |
|---|---|
| Airport | Boston Logan International Airport (KBOS) |
| Time | Latitude | Longitude | Altitude | Speed | Heading |
|---|---|---|---|---|---|
| 2026-05-04 17:05 | 40.64538 | -73.77337 | 20 ft | 0 kts | 358° |
| 2026-05-04 17:16 | 40.64530 | -73.77336 | 21 ft | 2 kts | 1° |
| 2026-05-04 17:17 | 40.64514 | -73.77337 | 22 ft | 2 kts | 359° |
| 2026-05-04 17:17 | 40.64472 | -73.77364 | 22 ft | 2 kts | 92° |
| 2026-05-04 17:18 | 40.64472 | -73.77371 | 22 ft | 0 kts | 98° |
| 2026-05-04 17:19 | 40.64472 | -73.77353 | 21 ft | 3 kts | 89° |
| 2026-05-04 17:20 | 40.64473 | -73.77243 | 21 ft | 8 kts | 90° |
| 2026-05-04 17:20 | 40.64427 | -73.77065 | 20 ft | 7 kts | 103° |
| 2026-05-04 17:20 | 40.64408 | -73.77000 | 21 ft | 9 kts | 103° |
| 2026-05-04 17:21 | 40.64376 | -73.76883 | 21 ft | 4 kts | 143° |
| 2026-05-04 17:21 | 40.64343 | -73.76889 | 20 ft | 2 kts | 203° |
| 2026-05-04 17:22 | 40.64226 | -73.76979 | 21 ft | 51 kts | 210° |
| 2026-05-04 17:22 | 40.63726 | -73.77368 | 21 ft | 112 kts | 211° |
| 2026-05-04 17:23 | 40.61007 | -73.78595 | 1330 ft | 173 kts | 156° |
| 2026-05-04 17:23 | 40.60151 | -73.77355 | 1700 ft | 200 kts | 108° |
| 2026-05-04 17:23 | 40.61311 | -73.74111 | 2614 ft | 227 kts | 17° |
| 2026-05-04 17:24 | 40.62914 | -73.73874 | 3230 ft | 242 kts | 351° |
| 2026-05-04 17:24 | 40.68111 | -73.73953 | 5771 ft | 268 kts | 19° |
| 2026-05-04 17:25 | 40.69750 | -73.72755 | 6326 ft | 272 kts | 28° |
| 2026-05-04 17:25 | 40.72879 | -73.69831 | 7296 ft | 278 kts | 31° |
| 2026-05-04 17:26 | 40.76054 | -73.66896 | 8436 ft | 281 kts | 28° |
| 2026-05-04 17:26 | 40.81149 | -73.62604 | 10480 ft | 314 kts | 27° |
| 2026-05-04 17:27 | 40.85103 | -73.59311 | 11140 ft | 352 kts | 28° |
| 2026-05-04 17:27 | 40.89293 | -73.55747 | 12593 ft | 363 kts | 28° |
| 2026-05-04 17:28 | 40.93584 | -73.52072 | 14047 ft | 372 kts | 28° |
| 2026-05-04 17:29 | 41.00210 | -73.46409 | 16081 ft | 383 kts | 28° |
| 2026-05-04 17:29 | 41.07035 | -73.40588 | 18084 ft | 395 kts | 28° |
| 2026-05-04 17:30 | 41.13289 | -73.35222 | 19744 ft | 405 kts | 28° |
| 2026-05-04 17:31 | 41.18071 | -73.31104 | 20818 ft | 413 kts | 28° |
| 2026-05-04 17:31 | 41.25326 | -73.24868 | 20954 ft | 414 kts | 28° |
| 2026-05-04 17:32 | 41.30159 | -73.20703 | 20949 ft | 414 kts | 28° |
| 2026-05-04 17:33 | 41.36636 | -73.13057 | 20944 ft | 426 kts | 52° |
| 2026-05-04 17:33 | 41.38065 | -73.09576 | 20936 ft | 431 kts | 64° |
| 2026-05-04 17:34 | 41.39928 | -72.97768 | 20951 ft | 437 kts | 79° |
| 2026-05-04 17:34 | 41.40357 | -72.93769 | 20923 ft | 438 kts | 79° |
| 2026-05-04 17:35 | 41.41649 | -72.81730 | 20928 ft | 437 kts | 79° |
| 2026-05-04 17:35 | 41.42500 | -72.73711 | 20927 ft | 437 kts | 79° |
| 2026-05-04 17:35 | 41.42924 | -72.69696 | 20924 ft | 437 kts | 79° |
| 2026-05-04 17:36 | 41.43345 | -72.65689 | 20943 ft | 437 kts | 80° |
| 2026-05-04 17:36 | 41.43766 | -72.61674 | 20938 ft | 437 kts | 80° |
| 2026-05-04 17:36 | 41.44186 | -72.57652 | 20947 ft | 437 kts | 80° |
| 2026-05-04 17:36 | 41.44604 | -72.53640 | 20946 ft | 437 kts | 80° |
| 2026-05-04 17:37 | 41.45018 | -72.49626 | 20947 ft | 437 kts | 80° |
| 2026-05-04 17:37 | 41.45429 | -72.45610 | 20934 ft | 437 kts | 80° |
| 2026-05-04 17:37 | 41.45840 | -72.41588 | 20945 ft | 437 kts | 80° |
| 2026-05-04 17:37 | 41.46248 | -72.37575 | 20946 ft | 438 kts | 80° |
| 2026-05-04 17:38 | 41.46657 | -72.33552 | 20936 ft | 438 kts | 80° |
| 2026-05-04 17:38 | 41.47064 | -72.29536 | 20937 ft | 437 kts | 80° |
| 2026-05-04 17:38 | 41.47472 | -72.25517 | 20948 ft | 437 kts | 80° |
| 2026-05-04 17:38 | 41.48056 | -72.21574 | 20954 ft | 429 kts | 71° |
| 2026-05-04 17:39 | 41.50467 | -72.14057 | 20951 ft | 456 kts | 60° |
| 2026-05-04 17:39 | 41.51897 | -72.10201 | 20955 ft | 469 kts | 61° |
| 2026-05-04 17:39 | 41.53350 | -72.06254 | 20730 ft | 477 kts | 61° |
| 2026-05-04 17:40 | 41.54798 | -72.02278 | 20467 ft | 475 kts | 61° |
| 2026-05-04 17:40 | 41.56208 | -71.98300 | 20179 ft | 473 kts | 63° |
| 2026-05-04 17:40 | 41.57509 | -71.94270 | 19930 ft | 473 kts | 65° |
| 2026-05-04 17:40 | 41.58724 | -71.90184 | 19707 ft | 473 kts | 66° |
| 2026-05-04 17:41 | 41.59891 | -71.86087 | 19459 ft | 472 kts | 67° |
| 2026-05-04 17:41 | 41.61051 | -71.81967 | 19213 ft | 480 kts | 67° |
| 2026-05-04 17:41 | 41.62231 | -71.77802 | 19019 ft | 477 kts | 67° |
| 2026-05-04 17:41 | 41.63416 | -71.73688 | 18753 ft | 474 kts | 66° |
| 2026-05-04 17:42 | 41.64620 | -71.69575 | 18518 ft | 473 kts | 66° |
| 2026-05-04 17:42 | 41.65822 | -71.65506 | 18275 ft | 472 kts | 66° |
| 2026-05-04 17:42 | 41.67028 | -71.61427 | 18004 ft | 470 kts | 66° |
| 2026-05-04 17:42 | 41.68192 | -71.57472 | 17724 ft | 440 kts | 66° |
| 2026-05-04 17:43 | 41.69271 | -71.53779 | 17457 ft | 411 kts | 66° |
| 2026-05-04 17:43 | 41.70272 | -71.50336 | 17190 ft | 385 kts | 66° |
| 2026-05-04 17:43 | 41.71213 | -71.47098 | 16914 ft | 363 kts | 66° |
| 2026-05-04 17:43 | 41.72109 | -71.44032 | 16648 ft | 344 kts | 64° |
| 2026-05-04 17:44 | 41.73168 | -71.41275 | 16390 ft | 324 kts | 56° |
| 2026-05-04 17:44 | 41.74276 | -71.38717 | 16077 ft | 312 kts | 56° |
| 2026-05-04 17:44 | 41.75352 | -71.36213 | 15351 ft | 315 kts | 56° |
| 2026-05-04 17:44 | 41.76470 | -71.33612 | 14278 ft | 330 kts | 56° |
| 2026-05-04 17:45 | 41.77637 | -71.30896 | 13068 ft | 344 kts | 57° |
| 2026-05-04 17:45 | 41.78829 | -71.28108 | 12355 ft | 340 kts | 57° |
| 2026-05-04 17:45 | 41.79966 | -71.25426 | 12128 ft | 321 kts | 57° |
| 2026-05-04 17:45 | 41.81029 | -71.22908 | 11986 ft | 302 kts | 57° |
| 2026-05-04 17:46 | 41.82061 | -71.20474 | 11992 ft | 308 kts | 56° |
| 2026-05-04 17:46 | 41.83187 | -71.17853 | 11996 ft | 341 kts | 56° |
| 2026-05-04 17:46 | 41.84421 | -71.14982 | 11988 ft | 362 kts | 57° |
| 2026-05-04 17:46 | 41.85640 | -71.12109 | 11998 ft | 346 kts | 57° |
| 2026-05-04 17:47 | 41.86801 | -71.09370 | 11952 ft | 332 kts | 57° |
| 2026-05-04 17:47 | 41.87936 | -71.06725 | 11781 ft | 323 kts | 56° |
| 2026-05-04 17:47 | 41.89056 | -71.04134 | 11541 ft | 318 kts | 56° |
| 2026-05-04 17:47 | 41.90163 | -71.01580 | 11391 ft | 317 kts | 56° |
| 2026-05-04 17:48 | 41.91271 | -70.99025 | 11241 ft | 316 kts | 56° |
| 2026-05-04 17:48 | 41.92376 | -70.96478 | 11107 ft | 316 kts | 57° |
| 2026-05-04 17:48 | 41.93193 | -70.94590 | 11003 ft | 316 kts | 56° |
| 2026-05-04 17:49 | 41.94156 | -70.92334 | 10881 ft | 316 kts | 57° |
| 2026-05-04 17:49 | 41.94364 | -70.91850 | 10856 ft | 315 kts | 57° |
| 2026-05-04 17:51 | 41.94463 | -70.91618 | 10832 ft | 315 kts | 56° |
| 2026-05-04 17:51 | 41.95562 | -70.89069 | 10694 ft | 316 kts | 56° |
| 2026-05-04 17:51 | 41.96662 | -70.86517 | 10565 ft | 315 kts | 56° |
| 2026-05-04 17:52 | 41.97757 | -70.83963 | 10437 ft | 315 kts | 57° |
| 2026-05-04 17:52 | 41.98849 | -70.81412 | 10292 ft | 315 kts | 57° |
| 2026-05-04 17:52 | 41.99942 | -70.78865 | 10149 ft | 315 kts | 56° |
| 2026-05-04 17:52 | 42.01076 | -70.76351 | 10011 ft | 312 kts | 50° |
| 2026-05-04 17:53 | 42.02476 | -70.74138 | 9692 ft | 310 kts | 43° |
| 2026-05-04 17:53 | 42.03915 | -70.71993 | 9367 ft | 308 kts | 43° |
| 2026-05-04 17:53 | 42.05342 | -70.69861 | 9079 ft | 306 kts | 44° |
| 2026-05-04 17:53 | 42.06765 | -70.67735 | 8792 ft | 305 kts | 44° |
| 2026-05-04 17:54 | 42.08179 | -70.65619 | 8505 ft | 304 kts | 43° |
| 2026-05-04 17:54 | 42.09610 | -70.63537 | 8210 ft | 301 kts | 37° |
| 2026-05-04 17:54 | 42.11281 | -70.61924 | 7930 ft | 292 kts | 21° |
| 2026-05-04 17:54 | 42.13151 | -70.60966 | 7665 ft | 284 kts | 6° |
| 2026-05-04 17:55 | 42.15078 | -70.60434 | 7398 ft | 282 kts | 5° |
| 2026-05-04 17:55 | 42.16995 | -70.59904 | 7129 ft | 281 kts | 5° |
| 2026-05-04 17:55 | 42.18937 | -70.59362 | 6846 ft | 281 kts | 5° |
| 2026-05-04 17:55 | 42.20825 | -70.58834 | 6591 ft | 280 kts | 5° |
| 2026-05-04 17:56 | 42.22752 | -70.58296 | 6326 ft | 279 kts | 5° |
| 2026-05-04 17:56 | 42.24652 | -70.57766 | 6049 ft | 279 kts | 5° |
| 2026-05-04 17:56 | 42.26553 | -70.57235 | 5784 ft | 279 kts | 5° |
| 2026-05-04 17:56 | 42.28456 | -70.56702 | 5514 ft | 279 kts | 5° |
| 2026-05-04 17:57 | 42.30343 | -70.56240 | 5256 ft | 276 kts | 358° |
| 2026-05-04 17:57 | 42.32211 | -70.56459 | 5036 ft | 265 kts | 338° |
| 2026-05-04 17:57 | 42.33865 | -70.57438 | 4975 ft | 257 kts | 320° |
| 2026-05-04 17:57 | 42.35226 | -70.59006 | 4978 ft | 253 kts | 309° |
| 2026-05-04 17:58 | 42.36482 | -70.60663 | 4984 ft | 253 kts | 310° |
| 2026-05-04 17:58 | 42.37734 | -70.62304 | 4983 ft | 254 kts | 310° |
| 2026-05-04 17:58 | 42.39021 | -70.63990 | 4966 ft | 254 kts | 310° |
| 2026-05-04 17:58 | 42.40290 | -70.65654 | 4970 ft | 254 kts | 310° |
| 2026-05-04 17:59 | 42.41555 | -70.67316 | 4964 ft | 254 kts | 310° |
| 2026-05-04 17:59 | 42.42806 | -70.68959 | 4961 ft | 254 kts | 310° |
| 2026-05-04 17:59 | 42.45347 | -70.72306 | 4957 ft | 253 kts | 309° |
| 2026-05-04 18:00 | 42.46609 | -70.73974 | 4964 ft | 253 kts | 309° |
| 2026-05-04 18:00 | 42.47853 | -70.75619 | 4957 ft | 253 kts | 309° |
| 2026-05-04 18:00 | 42.49133 | -70.77310 | 4954 ft | 254 kts | 309° |
| 2026-05-04 18:00 | 42.50382 | -70.78957 | 4949 ft | 245 kts | 309° |
| 2026-05-04 18:01 | 42.51601 | -70.80472 | 4950 ft | 234 kts | 319° |
| 2026-05-04 18:01 | 42.53100 | -70.81303 | 4959 ft | 240 kts | 345° |
| 2026-05-04 18:01 | 42.54789 | -70.81094 | 4962 ft | 253 kts | 12° |
| 2026-05-04 18:02 | 42.58124 | -70.79449 | 4961 ft | 255 kts | 14° |
| 2026-05-04 18:02 | 42.59791 | -70.78611 | 4942 ft | 256 kts | 14° |
| 2026-05-04 18:02 | 42.61463 | -70.77777 | 4955 ft | 256 kts | 15° |
| 2026-05-04 18:02 | 42.63119 | -70.77093 | 4910 ft | 239 kts | 356° |
| 2026-05-04 18:03 | 42.64591 | -70.77576 | 4804 ft | 206 kts | 314° |
| 2026-05-04 18:03 | 42.65346 | -70.79032 | 4718 ft | 179 kts | 278° |
| 2026-05-04 18:03 | 42.65341 | -70.80642 | 4626 ft | 169 kts | 251° |
| 2026-05-04 18:03 | 42.64721 | -70.81980 | 4548 ft | 171 kts | 226° |
| 2026-05-04 18:04 | 42.63844 | -70.83081 | 4463 ft | 172 kts | 226° |
| 2026-05-04 18:04 | 42.62968 | -70.84185 | 4383 ft | 170 kts | 227° |
| 2026-05-04 18:04 | 42.61389 | -70.86169 | 4225 ft | 134 kts | 227° |
| 2026-05-04 18:05 | 42.60749 | -70.86975 | 4164 ft | 120 kts | 229° |
| 2026-05-04 18:05 | 42.60144 | -70.87747 | 4108 ft | 120 kts | 229° |
| 2026-05-04 18:05 | 42.59543 | -70.88512 | 4053 ft | 118 kts | 229° |
| 2026-05-04 18:05 | 42.58943 | -70.89263 | 3987 ft | 118 kts | 226° |
| 2026-05-04 18:06 | 42.57457 | -70.90323 | 3962 ft | 128 kts | 209° |
| 2026-05-04 18:06 | 42.56520 | -70.90796 | 3968 ft | 154 kts | 208° |
| 2026-05-04 18:06 | 42.55487 | -70.91304 | 3937 ft | 160 kts | 207° |
| 2026-05-04 18:07 | 42.54454 | -70.91799 | 3654 ft | 154 kts | 207° |
| 2026-05-04 18:07 | 42.53449 | -70.92279 | 3316 ft | 152 kts | 207° |
| 2026-05-04 18:07 | 42.52439 | -70.92769 | 3130 ft | 156 kts | 208° |
| 2026-05-04 18:07 | 42.51417 | -70.93265 | 2922 ft | 152 kts | 207° |
| 2026-05-04 18:08 | 42.50469 | -70.93723 | 2747 ft | 144 kts | 208° |
| 2026-05-04 18:08 | 42.49838 | -70.94033 | 2609 ft | 147 kts | 207° |
| 2026-05-04 18:08 | 42.48873 | -70.94502 | 2418 ft | 146 kts | 208° |
| 2026-05-04 18:08 | 42.47930 | -70.94958 | 2216 ft | 138 kts | 208° |
| 2026-05-04 18:09 | 42.46221 | -70.95786 | 1865 ft | 123 kts | 208° |
| 2026-05-04 18:09 | 42.44627 | -70.96562 | 1549 ft | 120 kts | 208° |
| 2026-05-04 18:10 | 42.43833 | -70.96950 | 1409 ft | 127 kts | 207° |
| 2026-05-04 18:10 | 42.42991 | -70.97359 | 1206 ft | 128 kts | 207° |
| 2026-05-04 18:10 | 42.42151 | -70.97766 | 1035 ft | 128 kts | 207° |
| 2026-05-04 18:10 | 42.41303 | -70.98178 | 863 ft | 131 kts | 208° |
| 2026-05-04 18:11 | 42.40433 | -70.98600 | 696 ft | 133 kts | 209° |
| 2026-05-04 18:11 | 42.39560 | -70.99022 | 517 ft | 134 kts | 207° |
| 2026-05-04 18:11 | 42.38694 | -70.99441 | 352 ft | 130 kts | 207° |
| 2026-05-04 18:11 | 42.37831 | -70.99862 | 157 ft | 135 kts | 207° |
| 2026-05-04 18:12 | 42.36958 | -71.00269 | 30 ft | 123 kts | 208° |
| 2026-05-04 18:12 | 42.36312 | -71.00604 | 27 ft | 74 kts | 198° |
| 2026-05-04 18:12 | 42.35986 | -71.00755 | 22 ft | 29 kts | 199° |
| 2026-05-04 18:12 | 42.35857 | -71.00843 | 21 ft | 16 kts | 212° |
| 2026-05-04 18:13 | 42.35815 | -71.00934 | 22 ft | 9 kts | 273° |
| 2026-05-04 18:13 | 42.35821 | -71.01007 | 23 ft | 7 kts | 278° |
| 2026-05-04 18:13 | 42.35832 | -71.01095 | 23 ft | 0 kts | 278° |
| 2026-05-04 18:15 | 42.35834 | -71.01113 | 23 ft | 4 kts | 278° |
| 2026-05-04 18:16 | 42.35842 | -71.01160 | 23 ft | 7 kts | 293° |
| 2026-05-04 18:16 | 42.35874 | -71.01204 | 24 ft | 5 kts | 275° |
| 2026-05-04 18:16 | 42.35859 | -71.01268 | 26 ft | 8 kts | 252° |
| 2026-05-04 18:17 | 42.35869 | -71.01452 | 26 ft | 12 kts | 280° |
| 2026-05-04 18:17 | 42.35924 | -71.01526 | 31 ft | 13 kts | 2° |
| 2026-05-04 18:17 | 42.36064 | -71.01465 | 26 ft | 12 kts | 18° |
| 2026-05-04 18:18 | 42.36150 | -71.01423 | 27 ft | 15 kts | 21° |
| 2026-05-04 18:18 | 42.36262 | -71.01367 | 23 ft | 19 kts | 20° |
| 2026-05-04 18:18 | 42.36395 | -71.01305 | 23 ft | 21 kts | 18° |
| 2026-05-04 18:18 | 42.36493 | -71.01260 | 23 ft | 12 kts | 19° |
| 2026-05-04 18:19 | 42.36536 | -71.01326 | 23 ft | 8 kts | 218° |
| 2026-05-04 18:19 | 42.36554 | -71.01370 | 23 ft | 7 kts | 341° |
| 2026-05-04 18:19 | 42.36575 | -71.01394 | 23 ft | 0 kts | 305° |